Time;durP1;ratioP1;P1;durP2;ratioP2;P2;SDS_P1;SDS_P2;PMS_P1;PMS_P2;Temp;Humidity;BMP_temperature;BMP_pressure;BME280_temperature;BME280_humidity;BME280_pressure;Samples;Min_cycle;Max_cycle;Signal;HPM_P1;HPM_P2
2022/01/03 00:00:37;;;;;;;;;;;;;;;13.20;62.61;100698.69;5140344;27;26889;-80
2022/01/03 00:03:04;;;;;;;;;;;;;;;13.22;62.97;100699.50;5140117;27;26918;-80
2022/01/03 00:05:29;;;;;;;;;;;;;;;13.21;62.66;100679.66;5140194;27;27019;-80
2022/01/03 00:07:54;;;;;;;;;;;;;;;13.20;63.08;100706.47;5141411;27;26733;-80
2022/01/03 00:10:20;;;;;;;;;;;;;;;13.19;63.31;100710.00;5139095;27;55969;-81
2022/01/03 00:12:45;;;;;;;;;;;;;;;13.21;62.65;100702.97;5140012;27;26383;-80
2022/01/03 00:15:13;;;;;;;;;;;;;;;13.19;62.83;100710.00;5140964;27;27048;-80
2022/01/03 00:17:38;;;;;;;;;;;;;;;13.19;63.07;100715.19;5147961;27;26729;-80
2022/01/03 00:20:04;;;;;;;;;;;;;;;13.22;63.49;100725.44;5143875;27;26948;-79
2022/01/03 00:22:35;;;;;;;;;;;;;;;13.22;63.20;100720.25;5144285;27;26914;-79
2022/01/03 00:25:03;;;;;;;;;;;;;;;13.21;63.23;100723.72;5141824;27;27953;-81
2022/01/03 00:27:33;;;;;;;;;;;;;;;13.22;63.12;100738.41;5140333;27;26934;-80
2022/01/03 00:29:59;;;;;;;;;;;;;;;13.20;63.26;100737.59;5139172;27;27001;-80
2022/01/03 00:32:25;;;;;;;;;;;;;;;13.19;62.77;100735.94;5138790;27;54986;-80
2022/01/03 00:34:51;;;;;;;;;;;;;;;13.19;63.16;100733.34;5140587;27;26925;-80
2022/01/03 00:37:18;;;;;;;;;;;;;;;13.21;63.55;100739.28;5140489;27;26701;-80
2022/01/03 00:39:44;;;;;;;;;;;;;;;13.21;63.24;100741.88;5140171;27;27062;-80
2022/01/03 00:42:09;;;;;;;;;;;;;;;13.21;63.31;100748.81;5140343;27;27012;-80
2022/01/03 00:44:34;;;;;;;;;;;;;;;13.20;63.43;100754.91;5141276;27;26995;-80
2022/01/03 00:47:00;;;;;;;;;;;;;;;13.17;63.13;100748.09;5145903;27;44960;-80
2022/01/03 00:49:25;;;;;;;;;;;;;;;13.16;63.35;100750.75;5140761;27;27865;-80
2022/01/03 00:51:50;;;;;;;;;;;;;;;13.14;63.37;100743.03;5140128;27;26853;-80
2022/01/03 00:54:15;;;;;;;;;;;;;;;13.12;63.86;100750.03;5140165;27;27495;-80
2022/01/03 00:56:46;;;;;;;;;;;;;;;13.11;64.01;100748.31;5140191;27;27033;-80
2022/01/03 00:59:22;;;;;;;;;;;;;;;13.11;64.03;100748.31;5139849;27;26866;-80
2022/01/03 01:01:49;;;;;;;;;;;;;;;13.09;63.61;100755.25;5139637;27;26984;-80
2022/01/03 01:04:16;;;;;;;;;;;;;;;13.09;63.97;100755.25;5139527;27;27206;-80
2022/01/03 01:06:41;;;;;;;;;;;;;;;13.10;64.01;100757.00;5139703;27;26801;-80
2022/01/03 01:09:09;;;;;;;;;;;;;;;13.10;63.84;100751.81;5138715;27;26834;-80
2022/01/03 01:11:34;;;;;;;;;;;;;;;13.09;63.98;100770.81;5138987;27;26933;-80
2022/01/03 01:14:00;;;;;;;;;;;;;;;13.09;64.11;100757.84;5138994;27;26601;-80
2022/01/03 01:16:26;;;;;;;;;;;;;;;13.10;63.91;100762.19;5139828;27;26915;-79
2022/01/03 01:18:51;;;;;;;;;;;;;;;13.10;63.56;100754.41;5139638;27;26879;-79
2022/01/03 01:21:17;;;;;;;;;;;;;;;13.11;63.70;100766.47;5139182;27;26745;-78
2022/01/03 01:23:43;;;;;;;;;;;;;;;13.10;63.81;100757.00;5138896;27;27630;-78
2022/01/03 01:28:52;;;;;;;;;;;;;;;13.11;63.61;100769.06;5139077;27;26813;-79
2022/01/03 01:31:22;;;;;;;;;;;;;;;13.10;64.13;100767.38;5138983;27;26962;-78
2022/01/03 01:33:50;;;;;;;;;;;;;;;13.08;64.13;100771.75;5138861;27;26776;-81
2022/01/03 01:36:16;;;;;;;;;;;;;;;13.01;64.04;100765.06;5138960;27;26917;-79
2022/01/03 01:38:44;;;;;;;;;;;;;;;12.94;63.92;100766.19;5138948;27;27861;-78
2022/01/03 01:41:10;;;;;;;;;;;;;;;12.92;63.96;100768.00;5138793;27;26785;-80
2022/01/03 01:43:36;;;;;;;;;;;;;;;12.87;63.66;100769.88;5138634;27;26941;-79
2022/01/03 01:46:08;;;;;;;;;;;;;;;12.85;63.82;100774.28;5138326;27;27064;-80
2022/01/03 01:48:35;;;;;;;;;;;;;;;12.83;64.12;100778.66;5138579;27;27041;-79
2022/01/03 01:51:01;;;;;;;;;;;;;;;12.82;64.32;100766.63;5138615;27;26993;-79
2022/01/03 01:53:26;;;;;;;;;;;;;;;12.78;63.90;100770.22;5138409;27;27020;-79
2022/01/03 01:55:52;;;;;;;;;;;;;;;12.81;63.91;100770.13;5138106;27;26807;-79
2022/01/03 01:58:34;;;;;;;;;;;;;;;12.78;64.62;100765.03;5138067;27;26746;-79
2022/01/03 02:01:01;;;;;;;;;;;;;;;12.78;63.92;100770.22;5141096;27;27033;-79
2022/01/03 02:03:45;;;;;;;;;;;;;;;12.78;64.14;100780.59;5142195;27;26968;-79
2022/01/03 02:06:29;;;;;;;;;;;;;;;12.79;64.21;100764.13;5142010;27;26850;-79
2022/01/03 02:09:13;;;;;;;;;;;;;;;12.79;64.36;100783.13;5142081;27;26794;-79
2022/01/03 02:11:47;;;;;;;;;;;;;;;12.81;64.26;100780.47;5142236;27;26802;-79
2022/01/03 02:14:12;;;;;;;;;;;;;;;12.82;63.90;100787.38;5142781;27;26570;-78
2022/01/03 02:16:38;;;;;;;;;;;;;;;12.82;64.19;100783.00;5145754;27;26994;-78
2022/01/03 02:19:03;;;;;;;;;;;;;;;12.82;64.20;100782.19;5145517;27;27029;-79
2022/01/03 02:21:28;;;;;;;;;;;;;;;12.83;64.19;100782.09;5141847;27;26858;-79
2022/01/03 02:23:53;;;;;;;;;;;;;;;12.85;63.82;100779.47;5142934;27;31099;-79
2022/01/03 02:26:19;;;;;;;;;;;;;;;12.83;63.48;100776.94;5142659;27;54882;-79
2022/01/03 02:28:44;;;;;;;;;;;;;;;12.83;64.11;100773.47;5142287;27;26939;-79
2022/01/03 02:31:09;;;;;;;;;;;;;;;12.85;63.33;100782.06;5142055;27;26620;-80
2022/01/03 02:33:34;;;;;;;;;;;;;;;12.87;63.86;100790.63;5141864;27;55656;-79
2022/01/03 02:35:59;;;;;;;;;;;;;;;12.86;63.55;100791.56;5144648;27;26837;-79
2022/01/03 02:38:25;;;;;;;;;;;;;;;12.86;63.43;100789.78;5143124;27;26832;-79
2022/01/03 02:40:50;;;;;;;;;;;;;;;12.86;63.30;100794.13;5141967;27;26943;-79
2022/01/03 02:43:15;;;;;;;;;;;;;;;12.86;63.65;100800.16;5141565;27;26854;-79
2022/01/03 02:45:40;;;;;;;;;;;;;;;12.88;63.20;100792.31;5142241;27;26962;-79
2022/01/03 02:48:11;;;;;;;;;;;;;;;12.87;63.70;100791.47;5141601;27;27063;-79
2022/01/03 02:50:36;;;;;;;;;;;;;;;12.87;63.77;100795.81;5141707;27;26770;-79
2022/01/03 02:53:01;;;;;;;;;;;;;;;12.88;63.71;100797.50;5141167;27;27968;-79
2022/01/03 02:55:27;;;;;;;;;;;;;;;12.90;64.31;100806.91;5141542;27;26809;-79
2022/01/03 02:57:54;;;;;;;;;;;;;;;12.91;63.61;100805.19;5141479;27;26905;-79
2022/01/03 03:00:23;;;;;;;;;;;;;;;12.90;63.16;100798.28;5140939;27;26903;-79
2022/01/03 03:02:49;;;;;;;;;;;;;;;12.92;63.83;100804.28;5141011;27;27884;-79
2022/01/03 03:05:14;;;;;;;;;;;;;;;12.90;63.62;100800.88;5141710;27;26905;-79
2022/01/03 03:07:39;;;;;;;;;;;;;;;12.88;63.49;100802.69;5141149;27;26914;-80
2022/01/03 03:10:11;;;;;;;;;;;;;;;12.88;63.81;100797.50;5142527;27;26844;-78
2022/01/03 03:12:37;;;;;;;;;;;;;;;12.91;63.58;100813.81;5142436;27;26937;-78
2022/01/03 03:15:03;;;;;;;;;;;;;;;12.91;63.48;100802.59;5143035;27;26716;-78
2022/01/03 03:17:28;;;;;;;;;;;;;;;12.90;63.61;100806.06;5123810;27;27643;-78
2022/01/03 03:19:58;;;;;;;;;;;;;;;12.88;63.42;100797.50;5142321;27;44057;-79
2022/01/03 03:22:24;;;;;;;;;;;;;;;12.88;63.66;100800.09;5142030;27;27278;-77
2022/01/03 03:24:49;;;;;;;;;;;;;;;12.82;64.20;100792.56;5140926;27;26807;-78
2022/01/03 03:27:15;;;;;;;;;;;;;;;12.83;63.41;100789.03;5140201;27;26966;-79
2022/01/03 03:29:44;;;;;;;;;;;;;;;12.83;63.57;100783.84;5140921;27;27075;-78
2022/01/03 03:32:10;;;;;;;;;;;;;;;12.81;64.10;100793.44;5141317;27;26895;-78
2022/01/03 03:34:35;;;;;;;;;;;;;;;12.80;63.55;100783.97;5140591;27;26747;-79
2022/01/03 03:37:00;;;;;;;;;;;;;;;12.78;64.05;100793.56;5139992;27;26756;-78
2022/01/03 03:39:26;;;;;;;;;;;;;;;12.77;63.86;100794.44;5139322;27;54023;-79
2022/01/03 03:41:51;;;;;;;;;;;;;;;12.75;63.80;100791.03;5142201;27;52667;-79
2022/01/03 03:44:16;;;;;;;;;;;;;;;12.71;63.71;100789.47;5141320;27;26842;-79
2022/01/03 03:46:41;;;;;;;;;;;;;;;12.71;63.98;100784.28;5139699;27;55376;-80
2022/01/03 03:49:07;;;;;;;;;;;;;;;12.70;63.50;100790.38;5139659;27;55348;-79
2022/01/03 03:51:38;;;;;;;;;;;;;;;12.71;63.83;100786.88;5141144;27;27025;-79
2022/01/03 03:54:03;;;;;;;;;;;;;;;12.73;63.75;100787.66;5140973;27;26966;-79
2022/01/03 03:56:28;;;;;;;;;;;;;;;12.72;63.52;100780.78;5140783;27;26954;-79
2022/01/03 03:58:53;;;;;;;;;;;;;;;12.71;63.87;100794.66;5140548;27;26900;-79
2022/01/03 04:01:18;;;;;;;;;;;;;;;12.70;64.17;100793.81;5140543;27;27286;-79
2022/01/03 04:03:44;;;;;;;;;;;;;;;12.71;64.02;100789.47;5139226;27;48558;-79
2022/01/03 04:06:09;;;;;;;;;;;;;;;12.71;63.55;100789.47;5139542;27;35563;-79
2022/01/03 04:08:34;;;;;;;;;;;;;;;12.76;63.39;100797.94;5138653;27;54691;-79
2022/01/03 04:10:59;;;;;;;;;;;;;;;12.73;63.60;100787.66;5139135;27;57105;-78
2022/01/03 04:13:24;;;;;;;;;;;;;;;12.72;63.88;100801.50;5139345;27;55059;-78
2022/01/03 04:15:49;;;;;;;;;;;;;;;12.72;63.53;100792.00;5139427;27;56374;-79
2022/01/03 04:18:15;;;;;;;;;;;;;;;12.71;63.56;100790.28;5139023;27;55087;-78
2022/01/03 04:20:40;;;;;;;;;;;;;;;12.72;63.92;100796.34;5138972;27;56504;-78
2022/01/03 04:23:05;;;;;;;;;;;;;;;12.73;64.12;100792.84;5139213;27;34813;-78
2022/01/03 04:25:30;;;;;;;;;;;;;;;12.76;64.31;100798.78;5138905;27;57202;-78
2022/01/03 04:27:55;;;;;;;;;;;;;;;12.75;63.60;100797.06;5139399;27;51158;-78
2022/01/03 04:30:20;;;;;;;;;;;;;;;12.73;64.14;100787.66;5140134;27;26746;-80
2022/01/03 04:32:46;;;;;;;;;;;;;;;12.70;64.14;100792.97;5139077;27;54045;-80
2022/01/03 04:35:11;;;;;;;;;;;;;;;12.71;63.54;100799.84;5145833;27;26932;-79
2022/01/03 04:37:36;;;;;;;;;;;;;;;12.63;63.79;100801.84;5146954;27;26825;-78
2022/01/03 04:40:02;;;;;;;;;;;;;;;12.65;64.21;100789.66;5146931;27;29859;-78
2022/01/03 04:42:27;;;;;;;;;;;;;;;12.68;64.05;100789.56;5144033;27;27084;-78
2022/01/03 04:44:52;;;;;;;;;;;;;;;12.71;63.79;100794.66;5144160;27;27051;-78
2022/01/03 04:47:17;;;;;;;;;;;;;;;12.72;64.65;100796.34;5144568;27;26876;-78
2022/01/03 04:49:42;;;;;;;;;;;;;;;12.73;64.53;100785.06;5141811;27;26890;-79
2022/01/03 04:52:08;;;;;;;;;;;;;;;12.75;64.57;100791.88;5140397;27;54118;-79
2022/01/03 04:54:33;;;;;;;;;;;;;;;12.77;64.29;100790.09;5140772;27;26780;-79
2022/01/03 04:56:59;;;;;;;;;;;;;;;12.77;63.85;100784.06;5139925;27;47784;-80
2022/01/03 04:59:24;;;;;;;;;;;;;;;12.78;63.95;100785.78;5142451;27;27070;-79
2022/01/03 05:01:49;;;;;;;;;;;;;;;12.81;63.90;100785.66;5141272;27;27154;-79
2022/01/03 05:04:15;;;;;;;;;;;;;;;12.81;64.45;100793.44;5141183;27;41040;-78
2022/01/03 05:06:40;;;;;;;;;;;;;;;12.83;63.75;100783.84;5145708;27;41653;-79
2022/01/03 05:09:05;;;;;;;;;;;;;;;12.80;64.20;100779.63;5144017;27;55850;-78
2022/01/03 05:11:30;;;;;;;;;;;;;;;12.81;64.09;100783.06;5144255;27;55167;-78
2022/01/03 05:13:55;;;;;;;;;;;;;;;12.79;64.15;100777.94;5143651;27;55760;-78
2022/01/03 05:16:20;;;;;;;;;;;;;;;12.76;64.02;100778.03;5145785;27;53967;-79
2022/01/03 05:18:46;;;;;;;;;;;;;;;12.77;64.13;100773.72;5144734;27;57213;-78
2022/01/03 05:21:11;;;;;;;;;;;;;;;12.77;63.95;100776.31;5144757;27;41393;-79
2022/01/03 05:23:36;;;;;;;;;;;;;;;12.77;64.51;100773.72;5144804;27;38262;-78
2022/01/03 05:26:01;;;;;;;;;;;;;;;12.76;64.59;100762.50;5146144;27;26772;-78
2022/01/03 05:28:26;;;;;;;;;;;;;;;12.75;64.68;100772.91;5145978;27;27673;-78
2022/01/03 05:30:52;;;;;;;;;;;;;;;12.73;64.81;100766.94;5144294;27;35184;-78
2022/01/03 05:33:17;;;;;;;;;;;;;;;12.73;64.20;100761.75;5144693;27;27582;-78
2022/01/03 05:35:43;;;;;;;;;;;;;;;12.71;64.27;100753.19;5143974;27;26825;-78
2022/01/03 05:38:08;;;;;;;;;;;;;;;12.66;64.12;100755.09;5143966;27;26826;-78
2022/01/03 05:40:33;;;;;;;;;;;;;;;12.60;63.74;100762.16;5144104;27;32020;-78
2022/01/03 05:42:58;;;;;;;;;;;;;;;12.51;64.18;100762.50;5142721;27;46736;-78
2022/01/03 05:45:23;;;;;;;;;;;;;;;12.44;65.02;100761.00;5143097;27;53874;-78
2022/01/03 05:47:49;;;;;;;;;;;;;;;12.39;64.84;100762.88;5142830;27;34183;-78
2022/01/03 05:50:15;;;;;;;;;;;;;;;12.36;65.17;100757.81;5143102;27;26839;-78
2022/01/03 05:52:41;;;;;;;;;;;;;;;12.36;65.50;100759.56;5143116;27;26733;-78
2022/01/03 05:55:06;;;;;;;;;;;;;;;12.31;65.04;100767.47;5140019;27;26913;-79
2022/01/03 05:57:32;;;;;;;;;;;;;;;12.30;64.86;100763.19;5140575;27;28058;-79
2022/01/03 05:59:57;;;;;;;;;;;;;;;12.26;64.75;100760.75;5139832;27;27004;-79
2022/01/03 06:02:24;;;;;;;;;;;;;;;12.24;65.34;100758.22;5138153;27;27002;-79
2022/01/03 06:04:56;;;;;;;;;;;;;;;12.21;65.16;100773.00;5138439;27;26932;-79
2022/01/03 06:07:22;;;;;;;;;;;;;;;12.15;64.29;100763.69;5138124;27;26944;-79
2022/01/03 06:09:47;;;;;;;;;;;;;;;12.11;65.30;100762.06;5137013;27;37272;-79
2022/01/03 06:12:13;;;;;;;;;;;;;;;12.09;65.14;100766.47;5137744;27;27076;-78
2022/01/03 06:14:38;;;;;;;;;;;;;;;12.09;65.81;100766.47;5137971;27;27250;-78
2022/01/03 06:17:04;;;;;;;;;;;;;;;12.11;65.24;100762.06;5137564;27;27032;-79
2022/01/03 06:19:29;;;;;;;;;;;;;;;12.16;65.82;100767.97;5137841;27;26651;-78
2022/01/03 06:21:55;;;;;;;;;;;;;;;12.19;65.94;100760.09;5137890;27;27022;-78
2022/01/03 06:24:21;;;;;;;;;;;;;;;12.24;65.02;100763.38;5137967;27;26825;-78
2022/01/03 06:26:46;;;;;;;;;;;;;;;12.26;65.55;100761.59;5137526;27;26924;-79
2022/01/03 06:29:13;;;;;;;;;;;;;;;12.29;65.54;100760.66;5137528;27;27001;-79
2022/01/03 06:31:39;;;;;;;;;;;;;;;12.17;64.76;100736.00;5137782;27;26918;-78
2022/01/03 06:34:04;;;;;;;;;;;;;;;12.33;65.75;100757.94;5137740;27;27003;-78
2022/01/03 06:36:29;;;;;;;;;;;;;;;12.39;64.76;100747.34;5137287;27;29238;-78
2022/01/03 06:38:56;;;;;;;;;;;;;;;12.41;65.36;100745.53;5138478;27;26747;-79
2022/01/03 06:41:21;;;;;;;;;;;;;;;12.43;65.28;100748.09;5137396;27;27125;-80
2022/01/03 06:43:46;;;;;;;;;;;;;;;12.42;65.21;100731.69;5138547;27;54622;-80
2022/01/03 06:46:12;;;;;;;;;;;;;;;12.39;64.76;100731.81;5140327;27;55242;-79
2022/01/03 06:48:37;;;;;;;;;;;;;;;12.36;64.41;100741.44;5144270;27;27118;-79
2022/01/03 06:51:03;;;;;;;;;;;;;;;12.33;65.03;100741.53;5140347;27;27521;-79
2022/01/03 06:53:28;;;;;;;;;;;;;;;12.27;64.82;100737.38;5140783;27;26934;-80
2022/01/03 06:55:53;;;;;;;;;;;;;;;12.18;64.87;100729.94;5140992;27;27006;-80
2022/01/03 06:58:18;;;;;;;;;;;;;;;12.14;65.20;100741.28;5140869;27;26847;-80
2022/01/03 07:00:44;;;;;;;;;;;;;;;12.11;64.96;100736.19;5143000;27;56346;-79
2022/01/03 07:03:09;;;;;;;;;;;;;;;12.08;64.85;100736.28;5141903;27;29440;-80
2022/01/03 07:05:34;;;;;;;;;;;;;;;12.06;65.59;100732.91;5145353;27;26924;-79
2022/01/03 07:07:59;;;;;;;;;;;;;;;12.01;65.55;100734.78;5144883;27;55174;-78
2022/01/03 07:10:25;;;;;;;;;;;;;;;11.99;65.16;100741.78;5144965;27;26826;-79
2022/01/03 07:12:52;;;;;;;;;;;;;;;11.98;65.22;100734.91;5145949;27;26709;-78
2022/01/03 07:20:46;;;;;;;;;;;;;;;11.90;65.64;100732.56;5141614;27;26837;-79
2022/01/03 07:23:12;;;;;;;;;;;;;;;11.90;66.25;100742.06;5140654;27;27012;-79
2022/01/03 07:25:37;;;;;;;;;;;;;;;11.91;66.13;100738.59;5143995;27;26655;-79
2022/01/03 07:28:02;;;;;;;;;;;;;;;11.92;66.33;100738.50;5143814;27;26740;-79
2022/01/03 07:30:28;;;;;;;;;;;;;;;11.94;65.86;100743.66;5145664;27;26837;-79
2022/01/03 07:32:53;;;;;;;;;;;;;;;11.96;66.44;100747.88;5146472;27;26729;-79
2022/01/03 07:35:18;;;;;;;;;;;;;;;12.01;66.37;100739.97;5147297;27;26925;-79
2022/01/03 07:37:43;;;;;;;;;;;;;;;12.08;66.50;100736.28;5146937;27;31482;-79
2022/01/03 07:40:09;;;;;;;;;;;;;;;12.12;66.36;100732.72;5147267;27;27067;-79
2022/01/03 07:42:34;;;;;;;;;;;;;;;12.18;66.12;100737.72;5146224;27;26740;-79
2022/01/03 07:44:59;;;;;;;;;;;;;;;12.23;66.08;100728.03;5141926;27;57472;-79
2022/01/03 07:47:24;;;;;;;;;;;;;;;12.24;66.44;100732.31;5140493;27;26798;-79
2022/01/03 07:49:49;;;;;;;;;;;;;;;12.28;66.07;100739.09;5144393;27;45673;-78
2022/01/03 07:52:15;;;;;;;;;;;;;;;12.31;66.00;100738.97;5148152;27;26736;-79
2022/01/03 07:54:40;;;;;;;;;;;;;;;12.34;65.64;100733.69;5145958;27;47510;-79
2022/01/03 07:57:05;;;;;;;;;;;;;;;12.36;66.11;100737.09;5146278;27;26764;-78
2022/01/03 07:59:30;;;;;;;;;;;;;;;12.42;66.02;100730.84;5143167;27;52027;-80
2022/01/03 08:01:55;;;;;;;;;;;;;;;12.44;65.89;100734.25;5140859;27;31968;-80
2022/01/03 08:04:21;;;;;;;;;;;;;;;12.46;65.78;100728.13;5141525;27;26929;-79
2022/01/03 08:06:46;;;;;;;;;;;;;;;12.50;65.86;100734.88;5139695;27;55054;-79
2022/01/03 08:09:11;;;;;;;;;;;;;;;12.49;66.20;100738.38;5139894;27;27028;-79
2022/01/03 08:11:36;;;;;;;;;;;;;;;12.50;65.75;100740.06;5140513;27;26810;-79
2022/01/03 08:14:01;;;;;;;;;;;;;;;12.52;65.28;100742.63;5139368;27;47538;-80
2022/01/03 08:16:27;;;;;;;;;;;;;;;12.56;65.58;100745.03;5139647;27;41818;-79
2022/01/03 08:18:52;;;;;;;;;;;;;;;12.60;65.41;100738.84;5139476;27;41438;-79
2022/01/03 08:21:17;;;;;;;;;;;;;;;12.62;65.50;100737.94;5140259;27;26913;-79
2022/01/03 08:23:42;;;;;;;;;;;;;;;12.63;66.06;100744.84;5139829;27;27550;-80
2022/01/03 08:26:07;;;;;;;;;;;;;;;12.65;65.26;100737.84;5141258;27;27071;-79
2022/01/03 08:28:33;;;;;;;;;;;;;;;12.67;65.05;100751.59;5143698;27;26816;-79
2022/01/03 08:30:58;;;;;;;;;;;;;;;12.68;64.75;100746.34;5144963;27;55100;-78
2022/01/03 08:33:23;;;;;;;;;;;;;;;12.70;64.98;100749.75;5144726;27;31400;-78
2022/01/03 08:35:48;;;;;;;;;;;;;;;12.73;64.99;100756.56;5147844;27;27076;-79
2022/01/03 08:38:13;;;;;;;;;;;;;;;12.75;64.90;100749.56;5145199;27;39779;-78
2022/01/03 08:40:39;;;;;;;;;;;;;;;12.78;64.90;100759.84;5144795;27;26393;-78
2022/01/03 08:43:04;;;;;;;;;;;;;;;12.79;64.57;100757.19;5145165;27;27565;-78
2022/01/03 08:45:29;;;;;;;;;;;;;;;12.81;64.56;100759.75;5143593;27;52282;-78
2022/01/03 08:47:54;;;;;;;;;;;;;;;12.81;63.76;100759.75;5142888;27;56135;-78
2022/01/03 08:50:20;;;;;;;;;;;;;;;12.87;64.43;100756.94;5139212;27;54447;-79
2022/01/03 08:52:45;;;;;;;;;;;;;;;12.89;64.58;100755.16;5139293;27;26916;-79
2022/01/03 08:55:11;;;;;;;;;;;;;;;12.91;64.40;100745.56;5137928;27;26858;-80
2022/01/03 08:57:37;;;;;;;;;;;;;;;12.91;64.46;100755.91;5137591;27;26843;-80
2022/01/03 09:00:03;;;;;;;;;;;;;;;12.92;64.01;100773.19;5137507;27;26876;-80
2022/01/03 09:02:28;;;;;;;;;;;;;;;12.94;64.45;100763.59;5137293;27;27049;-78
2022/01/03 09:04:53;;;;;;;;;;;;;;;12.92;63.46;100744.66;5137325;27;26578;-78
2022/01/03 09:07:19;;;;;;;;;;;;;;;12.96;64.46;100743.66;5136175;27;45901;-79
2022/01/03 09:09:44;;;;;;;;;;;;;;;12.97;63.98;100746.16;5136892;27;26885;-79
2022/01/03 09:12:09;;;;;;;;;;;;;;;12.99;64.19;100743.53;5137817;27;52309;-80
2022/01/03 09:14:35;;;;;;;;;;;;;;;13.02;63.93;100739.09;5139699;27;51546;-79
2022/01/03 09:17:00;;;;;;;;;;;;;;;13.01;63.67;100731.34;5139119;27;27554;-79
2022/01/03 09:19:26;;;;;;;;;;;;;;;13.03;63.92;100729.56;5137885;27;27029;-79
2022/01/03 09:21:59;;;;;;;;;;;;;;;13.00;64.06;100733.13;5137172;27;27433;-79
2022/01/03 09:24:30;;;;;;;;;;;;;;;13.03;64.55;100729.56;5139077;27;26940;-80
2022/01/03 09:29:39;;;;;;;;;;;;;;;13.03;63.69;100721.78;5138902;27;27037;-80
2022/01/03 09:32:06;;;;;;;;;;;;;;;13.05;63.70;100730.34;5139317;27;27508;-81
2022/01/03 09:34:31;;;;;;;;;;;;;;;13.05;63.77;100728.59;5137670;27;26860;-80
2022/01/03 09:36:56;;;;;;;;;;;;;;;13.08;63.88;100722.47;5136246;27;55371;-80
2022/01/03 09:39:22;;;;;;;;;;;;;;;13.09;63.69;100729.31;5135661;27;54984;-80
2022/01/03 09:41:55;;;;;;;;;;;;;;;13.08;64.17;100732.84;5136698;27;26840;-80
2022/01/03 09:44:21;;;;;;;;;;;;;;;13.11;64.21;100731.91;5137182;27;26860;-80
2022/01/03 09:46:48;;;;;;;;;;;;;;;13.12;63.54;100733.63;5136977;27;27078;-80
2022/01/03 09:49:16;;;;;;;;;;;;;;;13.09;63.49;100731.94;5137744;27;26880;-81
2022/01/03 09:51:42;;;;;;;;;;;;;;;13.09;64.10;100724.16;5138557;27;27500;-80
2022/01/03 09:54:08;;;;;;;;;;;;;;;13.11;64.07;100727.56;5139436;27;27008;-78
2022/01/03 09:56:35;;;;;;;;;;;;;;;13.17;64.28;100726.50;5142282;27;28281;-78
2022/01/03 09:59:00;;;;;;;;;;;;;;;13.20;64.17;100727.22;5142576;27;27003;-78
2022/01/03 10:01:26;;;;;;;;;;;;;;;13.24;63.77;100728.81;5142232;27;26939;-78
2022/01/03 10:03:51;;;;;;;;;;;;;;;13.26;63.66;100726.16;5141898;27;27142;-79
2022/01/03 10:06:18;;;;;;;;;;;;;;;13.24;63.76;100728.81;5141919;27;26847;-78
2022/01/03 10:08:43;;;;;;;;;;;;;;;13.19;63.56;100720.38;5143354;27;26935;-78
2022/01/03 10:11:09;;;;;;;;;;;;;;;13.16;64.22;100730.81;5144257;27;27505;-79
2022/01/03 10:13:34;;;;;;;;;;;;;;;13.14;63.36;100727.47;5143136;27;27096;-78
2022/01/03 10:15:59;;;;;;;;;;;;;;;13.15;63.69;100717.94;5138228;27;26687;-79
2022/01/03 10:18:26;;;;;;;;;;;;;;;13.18;64.09;100718.66;5137666;27;31735;-80
2022/01/03 10:20:51;;;;;;;;;;;;;;;13.23;63.55;100716.75;5139623;27;27064;-79
2022/01/03 10:23:17;;;;;;;;;;;;;;;13.25;63.97;100709.75;5141910;27;26819;-80
2022/01/03 10:25:42;;;;;;;;;;;;;;;13.28;64.09;100709.63;5141400;27;27040;-80
2022/01/03 10:28:08;;;;;;;;;;;;;;;13.34;64.16;100709.41;5141547;27;26924;-80
2022/01/03 10:30:38;;;;;;;;;;;;;;;13.41;64.08;100705.69;5144546;27;27832;-79
2022/01/03 10:33:05;;;;;;;;;;;;;;;13.48;62.77;100701.94;5146721;27;26865;-79
2022/01/03 10:35:38;;;;;;;;;;;;;;;13.55;63.67;100700.81;5146244;27;26782;-79
2022/01/03 10:38:03;;;;;;;;;;;;;;;13.60;63.30;100695.44;5146938;27;27068;-79
2022/01/03 10:40:29;;;;;;;;;;;;;;;13.61;62.66;100701.47;5144892;27;26939;-79
2022/01/03 10:42:56;;;;;;;;;;;;;;;13.63;63.11;100700.50;5144969;27;26774;-79
2022/01/03 10:45:32;;;;;;;;;;;;;;;13.63;62.69;100704.84;5145141;27;26939;-79
2022/01/03 10:47:58;;;;;;;;;;;;;;;13.63;62.22;100700.50;5145819;27;26900;-79
2022/01/03 10:50:24;;;;;;;;;;;;;;;13.62;61.95;100697.97;5144824;27;27102;-79
2022/01/03 10:52:50;;;;;;;;;;;;;;;13.61;62.00;100685.91;5146479;27;26953;-79
2022/01/03 10:55:15;;;;;;;;;;;;;;;13.62;62.54;100697.97;5145248;27;26959;-79
2022/01/03 10:57:44;;;;;;;;;;;;;;;13.65;62.43;100687.44;5148775;27;26798;-79
2022/01/03 11:00:14;;;;;;;;;;;;;;;13.69;61.97;100689.03;5151994;27;26816;-79
2022/01/03 11:02:39;;;;;;;;;;;;;;;13.71;62.52;100675.09;5153416;27;26842;-79
2022/01/03 11:05:10;;;;;;;;;;;;;;;13.68;61.78;100685.59;5150679;27;51987;-80
2022/01/03 11:13:14;;;;;;;;;;;;;;;13.65;61.26;100677.06;5148512;27;26693;-79
2022/01/03 11:15:51;;;;;;;;;;;;;;;13.69;61.62;100663.06;5140836;27;27739;-79
2022/01/03 11:18:18;;;;;;;;;;;;;;;13.74;61.55;100671.53;5141167;27;26467;-79
2022/01/03 11:20:45;;;;;;;;;;;;;;;13.77;61.41;100672.25;5140782;27;26833;-80
2022/01/03 11:23:18;;;;;;;;;;;;;;;13.82;61.11;100661.69;5141046;27;26868;-79
2022/01/03 11:25:43;;;;;;;;;;;;;;;13.84;60.31;100662.44;5147163;27;27510;-80
2022/01/03 11:28:09;;;;;;;;;;;;;;;13.84;60.06;100672.84;5147908;27;54881;-80
2022/01/03 11:30:35;;;;;;;;;;;;;;;13.86;59.81;100660.66;5147546;27;26865;-80
2022/01/03 11:33:00;;;;;;;;;;;;;;;13.84;59.52;100657.25;5146065;27;27008;-80
2022/01/03 11:35:25;;;;;;;;;;;;;;;13.87;60.02;100646.78;5144427;27;27441;-79
2022/01/03 11:37:52;;;;;;;;;;;;;;;13.89;59.96;100639.75;5146765;27;26915;-80
2022/01/03 11:40:17;;;;;;;;;;;;;;;13.95;60.21;100649.88;5146095;27;28008;-80
2022/01/03 11:42:43;;;;;;;;;;;;;;;13.96;59.85;100641.19;5144214;27;50164;-80
2022/01/03 11:45:08;;;;;;;;;;;;;;;13.98;59.44;100640.19;5143546;27;26932;-78
2022/01/03 11:47:35;;;;;;;;;;;;;;;14.00;59.68;100642.75;5144057;27;26577;-80
2022/01/03 11:50:00;;;;;;;;;;;;;;;14.00;60.14;100643.59;5147345;27;27075;-80
2022/01/03 11:52:26;;;;;;;;;;;;;;;14.01;59.48;100644.44;5150984;27;26942;-80
2022/01/03 11:54:52;;;;;;;;;;;;;;;14.04;59.58;100644.31;5153325;27;26790;-78
2022/01/03 11:57:29;;;;;;;;;;;;;;;14.10;59.50;100644.03;5148743;27;26596;-80
2022/01/03 12:05:43;;;;;;;;;;;;;;;14.20;59.46;100628.94;5143513;27;26500;-80
2022/01/03 12:08:18;;;;;;;;;;;;;;;14.23;59.25;100628.78;5146715;27;27076;-80
2022/01/03 12:10:44;;;;;;;;;;;;;;;14.22;58.88;100620.16;5140420;27;26847;-81
2022/01/03 12:13:09;;;;;;;;;;;;;;;14.26;59.26;100619.13;5140306;27;27395;-80
2022/01/03 12:15:41;;;;;;;;;;;;;;;14.27;58.35;100620.81;5140601;27;26980;-81
2022/01/03 12:18:24;;;;;;;;;;;;;;;14.30;59.21;100620.66;5140794;27;26735;-81
2022/01/03 12:20:50;;;;;;;;;;;;;;;14.35;58.69;100612.72;5140026;27;27041;-81
2022/01/03 12:23:34;;;;;;;;;;;;;;;14.25;58.31;100601.81;5140448;27;26856;-80
2022/01/03 12:26:08;;;;;;;;;;;;;;;14.14;57.90;100598.84;5139582;27;27989;-80
2022/01/03 12:28:52;;;;;;;;;;;;;;;14.02;58.30;100594.19;5139504;27;26734;-81
2022/01/03 12:31:17;;;;;;;;;;;;;;;13.91;58.72;100597.22;5139659;27;27161;-81
2022/01/03 12:34:02;;;;;;;;;;;;;;;13.86;58.63;100598.34;5139078;27;55076;-81
2022/01/03 12:36:28;;;;;;;;;;;;;;;13.83;58.77;100585.50;5139358;27;28050;-81
2022/01/03 12:39:01;;;;;;;;;;;;;;;13.80;59.38;100588.19;5140128;27;26927;-80
2022/01/03 12:41:37;;;;;;;;;;;;;;;13.74;59.35;100578.06;5139954;27;26948;-80
2022/01/03 12:44:02;;;;;;;;;;;;;;;13.69;59.30;100580.00;5138835;27;26833;-81
2022/01/03 12:46:27;;;;;;;;;;;;;;;13.68;59.48;100579.19;5139938;27;37465;-80
2022/01/03 12:48:55;;;;;;;;;;;;;;;13.64;59.84;100577.63;5138990;27;55391;-80
2022/01/03 12:51:20;;;;;;;;;;;;;;;13.69;60.53;100574.81;5139844;27;27097;-80
2022/01/03 12:53:48;;;;;;;;;;;;;;;13.72;60.22;100559.97;5140153;27;26733;-80